sensor_id;sensor_type;location;lat;lon;timestamp;pressure;altitude;pressure_sealevel;temperature;humidity
14902;BME280;7542;49.078;9.194;2023-08-12T00:00:52;98854.38;;;32.20;37.46
14902;BME280;7542;49.078;9.194;2023-08-12T00:01:54;98848.16;;;32.20;37.46
14902;BME280;7542;49.078;9.194;2023-08-12T00:02:56;98853.88;;;32.18;37.38
14902;BME280;7542;49.078;9.194;2023-08-12T00:03:57;98853.09;;;32.18;37.35
14902;BME280;7542;49.078;9.194;2023-08-12T00:04:59;98848.78;;;32.17;37.52
14902;BME280;7542;49.078;9.194;2023-08-12T00:06:02;98851.97;;;32.19;37.30
14902;BME280;7542;49.078;9.194;2023-08-12T00:07:07;98846.84;;;32.17;37.68
14902;BME280;7542;49.078;9.194;2023-08-12T00:08:09;98840.13;;;32.15;37.27
14902;BME280;7542;49.078;9.194;2023-08-12T00:09:11;98847.47;;;32.14;37.27
14902;BME280;7542;49.078;9.194;2023-08-12T00:10:17;98840.94;;;32.15;37.30
14902;BME280;7542;49.078;9.194;2023-08-12T00:11:18;98837.72;;;32.13;37.58
14902;BME280;7542;49.078;9.194;2023-08-12T00:12:20;98843.97;;;32.14;37.17
14902;BME280;7542;49.078;9.194;2023-08-12T00:13:22;98835.81;;;32.14;37.33
14902;BME280;7542;49.078;9.194;2023-08-12T00:14:24;98832.88;;;32.10;37.57
14902;BME280;7542;49.078;9.194;2023-08-12T00:15:26;98839.91;;;32.11;37.23
14902;BME280;7542;49.078;9.194;2023-08-12T00:16:28;98839.91;;;32.11;37.39
14902;BME280;7542;49.078;9.194;2023-08-12T00:17:30;98833.69;;;32.11;37.45
14902;BME280;7542;49.078;9.194;2023-08-12T00:18:32;98827.47;;;32.10;37.46
14902;BME280;7542;49.078;9.194;2023-08-12T00:19:38;98827.47;;;32.10;37.38
14902;BME280;7542;49.078;9.194;2023-08-12T00:20:41;98828.56;;;32.09;37.47
14902;BME280;7542;49.078;9.194;2023-08-12T00:21:43;98822.34;;;32.09;37.28
14902;BME280;7542;49.078;9.194;2023-08-12T00:22:45;98825.06;;;32.09;37.43
14902;BME280;7542;49.078;9.194;2023-08-12T00:23:47;98824.25;;;32.08;37.36
14902;BME280;7542;49.078;9.194;2023-08-12T00:24:51;98822.66;;;32.07;37.20
14902;BME280;7542;49.078;9.194;2023-08-12T00:25:58;98820.75;;;32.08;37.08
14902;BME280;7542;49.078;9.194;2023-08-12T00:27:00;98818.66;;;32.05;37.31
14902;BME280;7542;49.078;9.194;2023-08-12T00:28:02;98824.06;;;32.05;37.44
14902;BME280;7542;49.078;9.194;2023-08-12T00:29:04;98820.88;;;32.03;37.33
14902;BME280;7542;49.078;9.194;2023-08-12T00:30:07;98823.88;;;32.01;37.41
14902;BME280;7542;49.078;9.194;2023-08-12T00:31:09;98817.63;;;32.00;37.39
14902;BME280;7542;49.078;9.194;2023-08-12T00:32:11;98820.34;;;32.00;37.11
14902;BME280;7542;49.078;9.194;2023-08-12T00:33:13;98815.22;;;31.99;37.02
14902;BME280;7542;49.078;9.194;2023-08-12T00:34:15;98819.06;;;31.98;37.40
14902;BME280;7542;49.078;9.194;2023-08-12T00:35:16;98818.25;;;31.97;37.30
14902;BME280;7542;49.078;9.194;2023-08-12T00:36:18;98815.53;;;31.97;37.12
14902;BME280;7542;49.078;9.194;2023-08-12T00:37:20;98806.59;;;31.97;37.31
14902;BME280;7542;49.078;9.194;2023-08-12T00:38:22;98809.63;;;31.95;37.40
14902;BME280;7542;49.078;9.194;2023-08-12T00:39:24;98814.25;;;31.95;37.34
14902;BME280;7542;49.078;9.194;2023-08-12T00:40:26;98818.88;;;31.94;37.48
14902;BME280;7542;49.078;9.194;2023-08-12T00:41:28;98817.28;;;31.93;37.32
14902;BME280;7542;49.078;9.194;2023-08-12T00:42:30;98818.06;;;31.94;37.37
14902;BME280;7542;49.078;9.194;2023-08-12T00:43:32;98814.06;;;31.91;37.61
14902;BME280;7542;49.078;9.194;2023-08-12T00:44:34;98811.63;;;31.90;37.42
14902;BME280;7542;49.078;9.194;2023-08-12T00:45:36;98814.66;;;31.88;37.33
14902;BME280;7542;49.078;9.194;2023-08-12T00:46:42;98816.25;;;31.89;37.48
14902;BME280;7542;49.078;9.194;2023-08-12T00:47:44;98817.66;;;31.87;37.49
14902;BME280;7542;49.078;9.194;2023-08-12T00:48:47;98810.94;;;31.84;37.53
14902;BME280;7542;49.078;9.194;2023-08-12T00:49:50;98810.16;;;31.84;37.46
14902;BME280;7542;49.078;9.194;2023-08-12T00:50:52;98810.16;;;31.84;37.64
14902;BME280;7542;49.078;9.194;2023-08-12T00:51:55;98810.47;;;31.82;37.66
14902;BME280;7542;49.078;9.194;2023-08-12T00:52:58;98813.16;;;31.82;37.57
14902;BME280;7542;49.078;9.194;2023-08-12T00:54:06;98806.03;;;31.86;37.26
14902;BME280;7542;49.078;9.194;2023-08-12T00:55:09;98809.66;;;31.82;37.55
14902;BME280;7542;49.078;9.194;2023-08-12T00:56:11;98808.84;;;31.81;37.36
14902;BME280;7542;49.078;9.194;2023-08-12T00:57:13;98811.03;;;31.79;37.39
14902;BME280;7542;49.078;9.194;2023-08-12T00:58:16;98812.16;;;31.78;37.46
14902;BME280;7542;49.078;9.194;2023-08-12T00:59:20;98797.78;;;31.78;37.38
14902;BME280;7542;49.078;9.194;2023-08-12T01:00:23;98805.63;;;31.79;37.39
14902;BME280;7542;49.078;9.194;2023-08-12T01:01:26;98799.69;;;31.77;37.44
14902;BME280;7542;49.078;9.194;2023-08-12T01:02:28;98800.81;;;31.76;37.44
14902;BME280;7542;49.078;9.194;2023-08-12T01:03:31;98801.63;;;31.77;37.52
14902;BME280;7542;49.078;9.194;2023-08-12T01:04:34;98804.91;;;31.73;37.60
14902;BME280;7542;49.078;9.194;2023-08-12T01:05:36;98797.56;;;31.74;37.51
14902;BME280;7542;49.078;9.194;2023-08-12T01:06:41;98798.41;;;31.75;37.46
14902;BME280;7542;49.078;9.194;2023-08-12T01:07:43;98795.69;;;31.75;37.27
14902;BME280;7542;49.078;9.194;2023-08-12T01:08:46;98790.56;;;31.73;37.51
14902;BME280;7542;49.078;9.194;2023-08-12T01:09:49;98796.28;;;31.71;37.54
14902;BME280;7542;49.078;9.194;2023-08-12T01:10:58;98798.09;;;31.76;37.39
14902;BME280;7542;49.078;9.194;2023-08-12T01:12:29;98792.47;;;31.86;37.43
14902;BME280;7542;49.078;9.194;2023-08-12T01:13:52;98791.16;;;31.84;37.35
14902;BME280;7542;49.078;9.194;2023-08-12T01:15:14;98793.88;;;31.84;37.35
14902;BME280;7542;49.078;9.194;2023-08-12T01:16:20;98791.34;;;31.73;37.33
14902;BME280;7542;49.078;9.194;2023-08-12T01:17:25;98787.34;;;31.71;37.27
14902;BME280;7542;49.078;9.194;2023-08-12T01:18:30;98793.66;;;31.66;37.50
14902;BME280;7542;49.078;9.194;2023-08-12T01:19:37;98787.13;;;31.67;37.40
14902;BME280;7542;49.078;9.194;2023-08-12T01:20:39;98781.53;;;31.64;37.42
14902;BME280;7542;49.078;9.194;2023-08-12T01:21:44;98789.97;;;31.62;37.87
14902;BME280;7542;49.078;9.194;2023-08-12T01:22:48;98786.44;;;31.62;37.55
14902;BME280;7542;49.078;9.194;2023-08-12T01:23:52;98787.06;;;31.59;37.27
14902;BME280;7542;49.078;9.194;2023-08-12T01:24:53;98784.63;;;31.57;37.60
14902;BME280;7542;49.078;9.194;2023-08-12T01:25:55;98784.94;;;31.56;37.59
14902;BME280;7542;49.078;9.194;2023-08-12T01:26:57;98789.88;;;31.54;37.64
14902;BME280;7542;49.078;9.194;2023-08-12T01:27:59;98789.38;;;31.52;37.70
14902;BME280;7542;49.078;9.194;2023-08-12T01:29:01;98783.44;;;31.50;38.03
14902;BME280;7542;49.078;9.194;2023-08-12T01:30:08;98777.72;;;31.51;37.68
14902;BME280;7542;49.078;9.194;2023-08-12T01:31:20;98780.94;;;31.53;37.75
14902;BME280;7542;49.078;9.194;2023-08-12T01:33:56;98771.38;;;31.56;37.73
14902;BME280;7542;49.078;9.194;2023-08-12T01:35:20;98771.59;;;31.59;37.65
14902;BME280;7542;49.078;9.194;2023-08-12T01:36:25;98771.50;;;31.51;38.03
14902;BME280;7542;49.078;9.194;2023-08-12T01:37:30;98770.47;;;31.47;37.81
14902;BME280;7542;49.078;9.194;2023-08-12T01:38:35;98773.50;;;31.45;38.18
14902;BME280;7542;49.078;9.194;2023-08-12T01:39:41;98772.38;;;31.46;37.65
14902;BME280;7542;49.078;9.194;2023-08-12T01:40:46;98774.59;;;31.44;37.97
14902;BME280;7542;49.078;9.194;2023-08-12T01:41:51;98769.50;;;31.42;37.76
14902;BME280;7542;49.078;9.194;2023-08-12T01:42:54;98772.50;;;31.41;38.07
14902;BME280;7542;49.078;9.194;2023-08-12T01:43:56;98772.81;;;31.39;37.77
14902;BME280;7542;49.078;9.194;2023-08-12T01:44:58;98777.94;;;31.41;38.15
14902;BME280;7542;49.078;9.194;2023-08-12T01:46:03;98771.22;;;31.38;37.87
14902;BME280;7542;49.078;9.194;2023-08-12T01:47:08;98766.28;;;31.40;38.06
14902;BME280;7542;49.078;9.194;2023-08-12T01:48:11;98775.53;;;31.39;38.10
14902;BME280;7542;49.078;9.194;2023-08-12T01:49:13;98767.97;;;31.36;37.97
14902;BME280;7542;49.078;9.194;2023-08-12T01:50:15;98768.78;;;31.37;38.00
14902;BME280;7542;49.078;9.194;2023-08-12T01:51:17;98770.69;;;31.36;38.17
14902;BME280;7542;49.078;9.194;2023-08-12T01:52:19;98777.72;;;31.37;38.02
14902;BME280;7542;49.078;9.194;2023-08-12T01:53:21;98769.88;;;31.36;38.28
14902;BME280;7542;49.078;9.194;2023-08-12T01:54:23;98769.88;;;31.36;37.94
14902;BME280;7542;49.078;9.194;2023-08-12T01:55:25;98777.22;;;31.35;38.14
14902;BME280;7542;49.078;9.194;2023-08-12T01:56:28;98773.69;;;31.35;38.11
14902;BME280;7542;49.078;9.194;2023-08-12T01:57:29;98771.28;;;31.33;37.82
14902;BME280;7542;49.078;9.194;2023-08-12T01:58:31;98772.72;;;31.31;38.17
14902;BME280;7542;49.078;9.194;2023-08-12T01:59:36;98763.78;;;31.30;37.96
14902;BME280;7542;49.078;9.194;2023-08-12T02:00:38;98761.88;;;31.31;37.72
14902;BME280;7542;49.078;9.194;2023-08-12T02:01:40;98770.31;;;31.29;38.11
14902;BME280;7542;49.078;9.194;2023-08-12T02:02:42;98768.69;;;31.28;38.45
14902;BME280;7542;49.078;9.194;2023-08-12T02:03:48;98769.50;;;31.29;37.78
14902;BME280;7542;49.078;9.194;2023-08-12T02:04:50;98767.59;;;31.29;38.11
14902;BME280;7542;49.078;9.194;2023-08-12T02:05:51;98774.13;;;31.28;38.03
14902;BME280;7542;49.078;9.194;2023-08-12T02:06:54;98772.00;;;31.25;38.23
14902;BME280;7542;49.078;9.194;2023-08-12T02:07:56;98781.75;;;31.26;38.21
14902;BME280;7542;49.078;9.194;2023-08-12T02:08:58;98780.13;;;31.25;38.22
14902;BME280;7542;49.078;9.194;2023-08-12T02:10:00;98788.53;;;31.24;38.35
14902;BME280;7542;49.078;9.194;2023-08-12T02:11:02;98777.72;;;31.24;38.48
14902;BME280;7542;49.078;9.194;2023-08-12T02:12:05;98785.03;;;31.23;37.89
14902;BME280;7542;49.078;9.194;2023-08-12T02:13:07;98785.34;;;31.22;38.10
14902;BME280;7542;49.078;9.194;2023-08-12T02:14:08;98788.34;;;31.20;38.45
14902;BME280;7542;49.078;9.194;2023-08-12T02:15:10;98782.41;;;31.18;38.24
14902;BME280;7542;49.078;9.194;2023-08-12T02:16:12;98782.13;;;31.20;38.60
14902;BME280;7542;49.078;9.194;2023-08-12T02:17:14;98785.91;;;31.19;38.14
14902;BME280;7542;49.078;9.194;2023-08-12T02:18:16;98788.63;;;31.19;38.22
14902;BME280;7542;49.078;9.194;2023-08-12T02:19:18;98772.69;;;31.17;38.32
14902;BME280;7542;49.078;9.194;2023-08-12T02:20:20;98776.50;;;31.16;38.04
14902;BME280;7542;49.078;9.194;2023-08-12T02:21:22;98774.84;;;31.15;38.34
14902;BME280;7542;49.078;9.194;2023-08-12T02:22:24;98779.47;;;31.14;38.56
14902;BME280;7542;49.078;9.194;2023-08-12T02:23:26;98785.69;;;31.15;38.52
14902;BME280;7542;49.078;9.194;2023-08-12T02:24:28;98773.25;;;31.14;38.29
14902;BME280;7542;49.078;9.194;2023-08-12T02:25:31;98778.97;;;31.12;38.38
14902;BME280;7542;49.078;9.194;2023-08-12T02:26:33;98777.38;;;31.11;38.08
14902;BME280;7542;49.078;9.194;2023-08-12T02:27:35;98780.09;;;31.11;38.81
14902;BME280;7542;49.078;9.194;2023-08-12T02:28:37;98774.66;;;31.11;38.37
14902;BME280;7542;49.078;9.194;2023-08-12T02:29:38;98780.09;;;31.11;38.64
14902;BME280;7542;49.078;9.194;2023-08-12T02:30:42;98785.81;;;31.10;38.20
14902;BME280;7542;49.078;9.194;2023-08-12T02:31:45;98782.28;;;31.09;38.62
14902;BME280;7542;49.078;9.194;2023-08-12T02:32:47;98778.78;;;31.09;38.94
14902;BME280;7542;49.078;9.194;2023-08-12T02:33:48;98774.47;;;31.08;38.43
14902;BME280;7542;49.078;9.194;2023-08-12T02:34:53;98775.56;;;31.07;38.46
14902;BME280;7542;49.078;9.194;2023-08-12T02:35:55;98770.75;;;31.04;38.68
14902;BME280;7542;49.078;9.194;2023-08-12T02:36:57;98771.25;;;31.06;38.41
14902;BME280;7542;49.078;9.194;2023-08-12T02:37:59;98776.94;;;31.04;38.69
14902;BME280;7542;49.078;9.194;2023-08-12T02:39:01;98769.66;;;31.05;38.34
14902;BME280;7542;49.078;9.194;2023-08-12T02:40:04;98764.53;;;31.03;38.98
14902;BME280;7542;49.078;9.194;2023-08-12T02:41:06;98768.81;;;31.04;38.51
14902;BME280;7542;49.078;9.194;2023-08-12T02:42:08;98764.53;;;31.03;38.59
14902;BME280;7542;49.078;9.194;2023-08-12T02:43:10;98769.44;;;31.01;38.83
14902;BME280;7542;49.078;9.194;2023-08-12T02:44:13;98761.31;;;31.01;38.74
14902;BME280;7542;49.078;9.194;2023-08-12T02:45:15;98768.63;;;31.01;38.63
14902;BME280;7542;49.078;9.194;2023-08-12T02:46:17;98762.41;;;31.00;38.61
14902;BME280;7542;49.078;9.194;2023-08-12T02:47:20;98757.81;;;31.01;38.91
14902;BME280;7542;49.078;9.194;2023-08-12T02:48:21;98759.72;;;31.00;38.81
14902;BME280;7542;49.078;9.194;2023-08-12T02:49:23;98752.38;;;31.01;38.81
14902;BME280;7542;49.078;9.194;2023-08-12T02:50:25;98757.81;;;31.01;38.50
14902;BME280;7542;49.078;9.194;2023-08-12T02:51:27;98758.09;;;30.99;38.89
14902;BME280;7542;49.078;9.194;2023-08-12T02:52:29;98760.81;;;30.99;38.52
14902;BME280;7542;49.078;9.194;2023-08-12T02:53:31;98750.78;;;31.00;38.65
14902;BME280;7542;49.078;9.194;2023-08-12T02:54:32;98749.97;;;30.99;38.66
14902;BME280;7542;49.078;9.194;2023-08-12T02:55:35;98751.09;;;30.98;38.96
14902;BME280;7542;49.078;9.194;2023-08-12T02:56:36;98751.09;;;30.98;38.38
14902;BME280;7542;49.078;9.194;2023-08-12T02:57:38;98753.00;;;30.98;38.67
14902;BME280;7542;49.078;9.194;2023-08-12T02:58:40;98746.47;;;30.99;38.74
14902;BME280;7542;49.078;9.194;2023-08-12T02:59:42;98754.59;;;30.99;38.53
14902;BME280;7542;49.078;9.194;2023-08-12T03:00:44;98744.06;;;30.97;38.95
14902;BME280;7542;49.078;9.194;2023-08-12T03:01:46;98748.69;;;30.97;39.16
14902;BME280;7542;49.078;9.194;2023-08-12T03:02:48;98750.59;;;30.96;38.85
14902;BME280;7542;49.078;9.194;2023-08-12T03:03:50;98745.47;;;30.95;39.00
14902;BME280;7542;49.078;9.194;2023-08-12T03:04:52;98749.28;;;30.94;38.73
14902;BME280;7542;49.078;9.194;2023-08-12T03:05:56;98742.25;;;30.93;38.76
14902;BME280;7542;49.078;9.194;2023-08-12T03:06:57;98742.25;;;30.93;39.03
14902;BME280;7542;49.078;9.194;2023-08-12T03:07:59;98743.03;;;30.93;38.91
14902;BME280;7542;49.078;9.194;2023-08-12T03:09:03;98745.75;;;30.93;39.13
14902;BME280;7542;49.078;9.194;2023-08-12T03:10:05;98741.75;;;30.91;38.87
14902;BME280;7542;49.078;9.194;2023-08-12T03:11:08;98741.75;;;30.91;38.77
14902;BME280;7542;49.078;9.194;2023-08-12T03:12:09;98740.94;;;30.90;38.88
14902;BME280;7542;49.078;9.194;2023-08-12T03:13:11;98740.94;;;30.90;39.28
14902;BME280;7542;49.078;9.194;2023-08-12T03:14:13;98740.94;;;30.90;38.76
14902;BME280;7542;49.078;9.194;2023-08-12T03:15:15;98745.56;;;30.90;39.20
14902;BME280;7542;49.078;9.194;2023-08-12T03:16:17;98745.84;;;30.88;38.78
14902;BME280;7542;49.078;9.194;2023-08-12T03:17:19;98740.44;;;30.88;38.80
14902;BME280;7542;49.078;9.194;2023-08-12T03:18:21;98741.25;;;30.88;39.16
14902;BME280;7542;49.078;9.194;2023-08-12T03:19:23;98743.16;;;30.88;39.04
14902;BME280;7542;49.078;9.194;2023-08-12T03:20:25;98744.25;;;30.87;39.19
14902;BME280;7542;49.078;9.194;2023-08-12T03:21:27;98737.72;;;30.88;38.82
14902;BME280;7542;49.078;9.194;2023-08-12T03:22:29;98736.13;;;30.87;39.37
14902;BME280;7542;49.078;9.194;2023-08-12T03:23:31;98733.41;;;30.87;39.08
14902;BME280;7542;49.078;9.194;2023-08-12T03:24:33;98729.09;;;30.86;39.03
14902;BME280;7542;49.078;9.194;2023-08-12T03:25:35;98727.50;;;30.85;39.27
14902;BME280;7542;49.078;9.194;2023-08-12T03:26:37;98734.03;;;30.84;38.86
14902;BME280;7542;49.078;9.194;2023-08-12T03:27:39;98729.41;;;30.84;39.27
14902;BME280;7542;49.078;9.194;2023-08-12T03:28:41;98725.91;;;30.84;39.16
14902;BME280;7542;49.078;9.194;2023-08-12T03:29:42;98725.09;;;30.83;39.31
14902;BME280;7542;49.078;9.194;2023-08-12T03:30:51;98719.88;;;30.87;39.25
14902;BME280;7542;49.078;9.194;2023-08-12T03:31:54;98725.09;;;30.83;39.24
14902;BME280;7542;49.078;9.194;2023-08-12T03:32:56;98718.06;;;30.82;38.81
14902;BME280;7542;49.078;9.194;2023-08-12T03:33:58;98725.38;;;30.82;38.94
14902;BME280;7542;49.078;9.194;2023-08-12T03:35:00;98723.47;;;30.82;39.16
14902;BME280;7542;49.078;9.194;2023-08-12T03:36:02;98725.69;;;30.80;38.86
14902;BME280;7542;49.078;9.194;2023-08-12T03:37:04;98730.78;;;30.82;39.04
14902;BME280;7542;49.078;9.194;2023-08-12T03:38:06;98728.69;;;30.79;38.84
14902;BME280;7542;49.078;9.194;2023-08-12T03:39:08;98728.69;;;30.79;38.86
14902;BME280;7542;49.078;9.194;2023-08-12T03:40:10;98725.47;;;30.77;38.90
14902;BME280;7542;49.078;9.194;2023-08-12T03:41:13;98733.59;;;30.77;39.31
14902;BME280;7542;49.078;9.194;2023-08-12T03:42:15;98728.50;;;30.75;39.44
14902;BME280;7542;49.078;9.194;2023-08-12T03:43:18;98731.19;;;30.75;39.36
14902;BME280;7542;49.078;9.194;2023-08-12T03:44:20;98725.28;;;30.73;39.45
14902;BME280;7542;49.078;9.194;2023-08-12T03:45:22;98730.41;;;30.75;39.42
14902;BME280;7542;49.078;9.194;2023-08-12T03:46:24;98729.91;;;30.73;39.55
14902;BME280;7542;49.078;9.194;2023-08-12T03:47:26;98736.13;;;30.73;39.11
14902;BME280;7542;49.078;9.194;2023-08-12T03:48:28;98734.50;;;30.72;39.16
14902;BME280;7542;49.078;9.194;2023-08-12T03:49:30;98740.19;;;30.71;39.15
14902;BME280;7542;49.078;9.194;2023-08-12T03:50:36;98730.97;;;30.72;39.41
14902;BME280;7542;49.078;9.194;2023-08-12T03:51:39;98738.59;;;30.70;39.54
14902;BME280;7542;49.078;9.194;2023-08-12T03:52:40;98736.50;;;30.67;39.58
14902;BME280;7542;49.078;9.194;2023-08-12T03:53:42;98741.09;;;30.66;39.76
14902;BME280;7542;49.078;9.194;2023-08-12T03:54:45;98742.22;;;30.65;39.58
14902;BME280;7542;49.078;9.194;2023-08-12T03:55:47;98744.38;;;30.63;39.22
14902;BME280;7542;49.078;9.194;2023-08-12T03:56:49;98746.00;;;30.64;39.11
14902;BME280;7542;49.078;9.194;2023-08-12T03:57:51;98745.50;;;30.62;39.40
14902;BME280;7542;49.078;9.194;2023-08-12T03:58:53;98746.59;;;30.61;39.91
14902;BME280;7542;49.078;9.194;2023-08-12T03:59:55;98748.75;;;30.59;39.77
14902;BME280;7542;49.078;9.194;2023-08-12T04:00:57;98750.38;;;30.60;39.59
14902;BME280;7542;49.078;9.194;2023-08-12T04:01:59;98746.84;;;30.59;39.43
14902;BME280;7542;49.078;9.194;2023-08-12T04:03:01;98746.06;;;30.59;39.39
14902;BME280;7542;49.078;9.194;2023-08-12T04:04:03;98751.47;;;30.59;39.27
14902;BME280;7542;49.078;9.194;2023-08-12T04:05:05;98747.16;;;30.58;39.97
14902;BME280;7542;49.078;9.194;2023-08-12T04:06:07;98746.34;;;30.57;39.91
14902;BME280;7542;49.078;9.194;2023-08-12T04:07:09;98756.69;;;30.55;39.62
14902;BME280;7542;49.078;9.194;2023-08-12T04:08:11;98754.78;;;30.56;39.77
14902;BME280;7542;49.078;9.194;2023-08-12T04:09:14;98749.66;;;30.54;39.75
14902;BME280;7542;49.078;9.194;2023-08-12T04:10:15;98750.78;;;30.53;39.45
14902;BME280;7542;49.078;9.194;2023-08-12T04:11:19;98749.97;;;30.53;39.57
14902;BME280;7542;49.078;9.194;2023-08-12T04:12:21;98739.13;;;30.53;39.90
14902;BME280;7542;49.078;9.194;2023-08-12T04:13:23;98741.03;;;30.52;39.94
14902;BME280;7542;49.078;9.194;2023-08-12T04:14:24;98741.84;;;30.53;39.38
14902;BME280;7542;49.078;9.194;2023-08-12T04:15:27;98732.13;;;30.52;39.91
14902;BME280;7542;49.078;9.194;2023-08-12T04:16:29;98725.91;;;30.51;39.97
14902;BME280;7542;49.078;9.194;2023-08-12T04:17:31;98732.94;;;30.52;39.66
14902;BME280;7542;49.078;9.194;2023-08-12T04:18:33;98735.63;;;30.52;39.39
14902;BME280;7542;49.078;9.194;2023-08-12T04:19:35;98751.88;;;30.52;39.83
14902;BME280;7542;49.078;9.194;2023-08-12T04:20:37;98759.19;;;30.52;39.49
14902;BME280;7542;49.078;9.194;2023-08-12T04:21:40;98766.50;;;30.51;39.48
14902;BME280;7542;49.078;9.194;2023-08-12T04:22:42;98767.31;;;30.52;39.69
14902;BME280;7542;49.078;9.194;2023-08-12T04:23:44;98769.47;;;30.50;39.77
14902;BME280;7542;49.078;9.194;2023-08-12T04:24:46;98756.25;;;30.48;39.97
14902;BME280;7542;49.078;9.194;2023-08-12T04:25:48;98753.25;;;30.50;39.52
14902;BME280;7542;49.078;9.194;2023-08-12T04:26:50;98755.44;;;30.48;39.65
14902;BME280;7542;49.078;9.194;2023-08-12T04:27:52;98767.06;;;30.48;40.13
14902;BME280;7542;49.078;9.194;2023-08-12T04:28:54;98757.34;;;30.47;39.62
14902;BME280;7542;49.078;9.194;2023-08-12T04:29:56;98764.66;;;30.47;40.15
14902;BME280;7542;49.078;9.194;2023-08-12T04:30:58;98754.94;;;30.46;40.28
14902;BME280;7542;49.078;9.194;2023-08-12T04:32:00;98761.16;;;30.46;39.64
14902;BME280;7542;49.078;9.194;2023-08-12T04:33:02;98750.34;;;30.46;39.89
14902;BME280;7542;49.078;9.194;2023-08-12T04:34:04;98751.44;;;30.45;39.76
14902;BME280;7542;49.078;9.194;2023-08-12T04:35:06;98748.72;;;30.45;40.27
14902;BME280;7542;49.078;9.194;2023-08-12T04:36:10;98745.22;;;30.45;40.08
14902;BME280;7542;49.078;9.194;2023-08-12T04:37:12;98740.63;;;30.45;40.42
14902;BME280;7542;49.078;9.194;2023-08-12T04:38:14;98744.13;;;30.46;39.90
14902;BME280;7542;49.078;9.194;2023-08-12T04:39:17;98746.81;;;30.46;40.04
14902;BME280;7542;49.078;9.194;2023-08-12T04:40:19;98747.63;;;30.46;39.87
14902;BME280;7542;49.078;9.194;2023-08-12T04:41:20;98747.63;;;30.46;39.79
14902;BME280;7542;49.078;9.194;2023-08-12T04:42:25;98754.66;;;30.47;39.80
14902;BME280;7542;49.078;9.194;2023-08-12T04:43:27;98753.84;;;30.47;39.93
14902;BME280;7542;49.078;9.194;2023-08-12T04:44:29;98749.53;;;30.46;40.33
14902;BME280;7542;49.078;9.194;2023-08-12T04:45:31;98749.22;;;30.47;40.41
14902;BME280;7542;49.078;9.194;2023-08-12T04:46:34;98744.91;;;30.46;40.14
14902;BME280;7542;49.078;9.194;2023-08-12T04:47:35;98748.44;;;30.47;39.79
14902;BME280;7542;49.078;9.194;2023-08-12T04:48:38;98741.41;;;30.46;40.43
14902;BME280;7542;49.078;9.194;2023-08-12T04:49:40;98737.09;;;30.45;40.09
14902;BME280;7542;49.078;9.194;2023-08-12T04:50:42;98746.81;;;30.46;40.20
14902;BME280;7542;49.078;9.194;2023-08-12T04:51:44;98746.81;;;30.46;40.28
14902;BME280;7542;49.078;9.194;2023-08-12T04:52:46;98745.22;;;30.45;39.96
14902;BME280;7542;49.078;9.194;2023-08-12T04:53:48;98746.31;;;30.44;40.08
14902;BME280;7542;49.078;9.194;2023-08-12T04:54:53;98737.91;;;30.45;39.87
14902;BME280;7542;49.078;9.194;2023-08-12T04:55:55;98740.91;;;30.44;40.51
14902;BME280;7542;49.078;9.194;2023-08-12T04:56:58;98738.22;;;30.44;40.17
14902;BME280;7542;49.078;9.194;2023-08-12T04:58:02;98739.00;;;30.44;40.42
14902;BME280;7542;49.078;9.194;2023-08-12T04:59:04;98738.22;;;30.44;40.46
14902;BME280;7542;49.078;9.194;2023-08-12T05:00:07;98745.53;;;30.43;40.00
14902;BME280;7542;49.078;9.194;2023-08-12T05:01:11;98756.84;;;30.45;40.00
14902;BME280;7542;49.078;9.194;2023-08-12T05:02:13;98753.63;;;30.43;39.95
14902;BME280;7542;49.078;9.194;2023-08-12T05:03:15;98757.44;;;30.42;40.04
14902;BME280;7542;49.078;9.194;2023-08-12T05:04:18;98746.94;;;30.41;40.61
14902;BME280;7542;49.078;9.194;2023-08-12T05:05:20;98756.13;;;30.40;40.37
14902;BME280;7542;49.078;9.194;2023-08-12T05:06:22;98749.63;;;30.41;40.24
14902;BME280;7542;49.078;9.194;2023-08-12T05:07:24;98754.25;;;30.40;40.47
14902;BME280;7542;49.078;9.194;2023-08-12T05:08:26;98756.13;;;30.40;40.58
14902;BME280;7542;49.078;9.194;2023-08-12T05:09:28;98755.31;;;30.39;40.48
14902;BME280;7542;49.078;9.194;2023-08-12T05:10:30;98749.41;;;30.37;40.13
14902;BME280;7542;49.078;9.194;2023-08-12T05:11:32;98748.59;;;30.37;40.72
14902;BME280;7542;49.078;9.194;2023-08-12T05:12:34;98752.41;;;30.36;40.26
14902;BME280;7542;49.078;9.194;2023-08-12T05:13:36;98744.28;;;30.36;40.33
14902;BME280;7542;49.078;9.194;2023-08-12T05:14:40;98747.28;;;30.34;40.46
14902;BME280;7542;49.078;9.194;2023-08-12T05:15:45;98748.59;;;30.37;40.53
14902;BME280;7542;49.078;9.194;2023-08-12T05:16:47;98744.59;;;30.34;40.85
14902;BME280;7542;49.078;9.194;2023-08-12T05:17:49;98748.09;;;30.35;40.70
14902;BME280;7542;49.078;9.194;2023-08-12T05:18:52;98746.50;;;30.34;40.37
14902;BME280;7542;49.078;9.194;2023-08-12T05:19:54;98742.19;;;30.33;40.35
14902;BME280;7542;49.078;9.194;2023-08-12T05:20:56;98734.38;;;30.31;40.46
14902;BME280;7542;49.078;9.194;2023-08-12T05:21:58;98737.38;;;30.29;40.55
14902;BME280;7542;49.078;9.194;2023-08-12T05:23:00;98746.00;;;30.32;40.61
14902;BME280;7542;49.078;9.194;2023-08-12T05:24:02;98744.88;;;30.33;40.51
14902;BME280;7542;49.078;9.194;2023-08-12T05:25:05;98744.09;;;30.32;40.90
14902;BME280;7542;49.078;9.194;2023-08-12T05:26:06;98748.19;;;30.29;40.86
14902;BME280;7542;49.078;9.194;2023-08-12T05:27:08;98743.28;;;30.32;40.76
14902;BME280;7542;49.078;9.194;2023-08-12T05:28:10;98748.19;;;30.29;40.70
14902;BME280;7542;49.078;9.194;2023-08-12T05:29:12;98742.78;;;30.29;40.77
14902;BME280;7542;49.078;9.194;2023-08-12T05:30:14;98739.78;;;30.31;40.85
14902;BME280;7542;49.078;9.194;2023-08-12T05:31:16;98737.38;;;30.29;40.44
14902;BME280;7542;49.078;9.194;2023-08-12T05:32:18;98733.06;;;30.28;40.64
14902;BME280;7542;49.078;9.194;2023-08-12T05:33:20;98737.38;;;30.29;40.53
14902;BME280;7542;49.078;9.194;2023-08-12T05:34:22;98733.56;;;30.30;40.95
14902;BME280;7542;49.078;9.194;2023-08-12T05:35:24;98732.75;;;30.30;40.41
14902;BME280;7542;49.078;9.194;2023-08-12T05:36:26;98731.97;;;30.29;40.39
14902;BME280;7542;49.078;9.194;2023-08-12T05:37:28;98725.75;;;30.29;41.01
14902;BME280;7542;49.078;9.194;2023-08-12T05:38:30;98724.41;;;30.26;40.91